Time;durP1;ratioP1;P1;durP2;ratioP2;P2;SDS_P1;SDS_P2;PMS_P1;PMS_P2;Temp;Humidity;BMP_temperature;BMP_pressure;BME280_temperature;BME280_humidity;BME280_pressure;Samples;Min_cycle;Max_cycle;Signal;HPM_P1;HPM_P2
2021/04/01 00:01:30;;;;;;;50.03;25.15;;;;;;;12.35;100.00;102025.69;5032931;28;20552;-70
2021/04/01 00:03:55;;;;;;;46.20;26.83;;;;;;;12.36;100.00;102035.59;5032798;28;20434;-70
2021/04/01 00:06:21;;;;;;;53.75;27.92;;;;;;;12.35;100.00;102033.91;5032616;28;20152;-70
2021/04/01 00:08:47;;;;;;;45.47;26.23;;;;;;;12.32;100.00;102037.13;5032641;28;20096;-69
2021/04/01 00:11:14;;;;;;;45.70;26.23;;;;;;;12.30;100.00;102036.47;5032692;28;20037;-70
2021/04/01 00:13:40;;;;;;;49.33;25.48;;;;;;;12.26;100.00;102029.75;5032328;28;20029;-69
2021/04/01 00:16:06;;;;;;;45.20;27.13;;;;;;;12.26;100.00;102032.50;5031852;28;20068;-70
2021/04/01 00:18:31;;;;;;;44.72;26.85;;;;;;;12.24;100.00;102026.41;5032532;28;20052;-70
2021/04/01 00:20:57;;;;;;;49.65;26.80;;;;;;;12.21;100.00;102021.41;5032313;28;20037;-70
2021/04/01 00:23:23;;;;;;;47.63;26.25;;;;;;;12.20;100.00;102029.84;5032281;28;20083;-69
2021/04/01 00:25:49;;;;;;;43.33;26.70;;;;;;;12.19;100.00;102022.69;5032397;28;20042;-70
2021/04/01 00:28:15;;;;;;;46.03;26.90;;;;;;;12.16;100.00;102029.47;5032269;28;20530;-70
2021/04/01 00:30:40;;;;;;;47.15;26.67;;;;;;;12.14;100.00;102020.59;5032355;28;20079;-70
2021/04/01 00:33:06;;;;;;;53.95;27.55;;;;;;;12.13;100.00;102029.88;5032263;28;20522;-71
2021/04/01 00:35:31;;;;;;;47.10;26.90;;;;;;;12.11;100.00;102029.25;5032068;28;20515;-69
2021/04/01 00:37:57;;;;;;;45.78;25.65;;;;;;;12.09;100.00;102023.19;5032077;28;20479;-71
2021/04/01 00:40:24;;;;;;;44.33;26.05;;;;;;;12.08;100.00;102018.75;5032120;28;20056;-71
2021/04/01 00:42:50;;;;;;;39.17;25.90;;;;;;;12.07;100.00;102025.31;5031945;28;20029;-70
2021/04/01 00:45:15;;;;;;;49.95;25.55;;;;;;;12.06;100.00;102018.16;5031900;28;20392;-70
2021/04/01 00:47:45;;;;;;;38.83;24.13;;;;;;;12.05;100.00;102016.47;5032011;28;20115;-71
2021/04/01 00:50:14;;;;;;;46.30;25.52;;;;;;;12.02;100.00;102016.94;5031835;28;20033;-70
2021/04/01 00:52:40;;;;;;;45.55;25.30;;;;;;;12.00;100.00;102019.06;5031732;28;20051;-70
2021/04/01 00:55:07;;;;;;;50.45;26.65;;;;;;;11.98;100.00;102021.19;5031792;28;20033;-71
2021/04/01 00:57:35;;;;;;;43.58;24.45;;;;;;;11.95;100.00;102016.13;5031606;28;20098;-70
2021/04/01 01:00:01;;;;;;;45.75;26.58;;;;;;;11.92;100.00;102022.03;5031770;28;20048;-70
2021/04/01 01:02:27;;;;;;;51.83;26.15;;;;;;;11.89;100.00;102017.03;5031743;28;20423;-70
2021/04/01 01:04:53;;;;;;;49.95;25.33;;;;;;;11.87;100.00;102017.25;5031404;28;20384;-70
2021/04/01 01:07:19;;;;;;;47.67;25.27;;;;;;;11.84;100.00;102014.13;5031707;28;20037;-69
2021/04/01 01:09:45;;;;;;;45.78;25.88;;;;;;;11.80;100.00;102007.38;5031612;28;20048;-70
2021/04/01 01:12:11;;;;;;;39.03;25.52;;;;;;;11.77;100.00;102014.97;5031429;28;20046;-70
2021/04/01 01:14:37;;;;;;;44.38;26.45;;;;;;;11.75;100.00;102011.59;5031262;28;20120;-69
2021/04/01 01:17:03;;;;;;;52.63;26.58;;;;;;;11.73;100.00;102008.25;5031487;28;20377;-70
2021/04/01 01:19:38;;;;;;;46.88;26.73;;;;;;;11.70;100.00;102013.34;5031284;28;20550;-70
2021/04/01 01:22:07;;;;;;;51.30;26.95;;;;;;;11.67;100.00;102009.16;5031600;28;20037;-70
2021/04/01 01:24:34;;;;;;;45.22;27.25;;;;;;;11.65;100.00;102005.81;5031234;28;20492;-70
2021/04/01 01:27:01;;;;;;;47.13;27.48;;;;;;;11.64;100.00;102004.13;5031116;28;20153;-70
2021/04/01 01:29:28;;;;;;;53.10;28.05;;;;;;;11.63;100.00;102012.56;5031228;28;20043;-70
2021/04/01 01:31:54;;;;;;;52.20;28.27;;;;;;;11.61;100.00;102012.75;5031144;28;20373;-69
2021/04/01 01:34:20;;;;;;;49.13;26.27;;;;;;;11.59;100.00;102006.66;5030837;28;20056;-70
2021/04/01 01:36:46;;;;;;;43.72;25.83;;;;;;;11.56;100.00;102009.00;5031175;28;20056;-70
2021/04/01 01:39:13;;;;;;;42.88;25.23;;;;;;;11.51;100.00;102015.16;5030900;28;20053;-69
2021/04/01 01:41:39;;;;;;;46.03;25.38;;;;;;;11.49;100.00;102006.31;5030899;28;20425;-71
2021/04/01 01:44:05;;;;;;;39.90;25.38;;;;;;;11.47;100.00;102008.44;5029567;28;20120;-70
2021/04/01 01:46:31;;;;;;;42.95;26.70;;;;;;;11.46;100.00;102012.25;5030957;28;20033;-70
2021/04/01 01:48:59;;;;;;;43.38;26.58;;;;;;;11.42;100.00;102006.34;5030847;28;20045;-70
2021/04/01 01:51:26;;;;;;;53.53;27.75;;;;;;;11.39;100.00;102006.78;5030943;28;20042;-70
2021/04/01 01:53:52;;;;;;;46.55;26.88;;;;;;;11.37;100.00;102002.59;5030707;28;20052;-69
2021/04/01 01:56:19;;;;;;;50.63;27.95;;;;;;;11.34;100.00;102003.88;5030804;28;20037;-70
2021/04/01 01:58:46;;;;;;;54.42;29.85;;;;;;;11.30;100.00;102007.28;5030907;28;20041;-70
2021/04/01 02:01:12;;;;;;;52.45;27.83;;;;;;;11.28;100.00;102003.91;5030805;28;20052;-71
2021/04/01 02:03:38;;;;;;;51.22;27.75;;;;;;;11.25;100.00;102004.34;5029345;28;20037;-70
2021/04/01 02:06:05;;;;;;;50.05;27.23;;;;;;;11.23;100.00;102000.97;5030859;28;20037;-70
2021/04/01 02:08:34;;;;;;;51.25;27.08;;;;;;;11.21;100.00;101997.63;5031075;28;20045;-69
2021/04/01 02:10:59;;;;;;;47.83;26.92;;;;;;;11.18;100.00;101994.28;5030589;28;20063;-70
2021/04/01 02:13:25;;;;;;;43.78;27.60;;;;;;;11.16;100.00;102001.88;5030568;28;20033;-71
2021/04/01 02:15:55;;;;;;;52.45;27.52;;;;;;;11.14;100.00;101998.50;5030760;28;20037;-69
2021/04/01 02:18:27;;;;;;;43.88;27.30;;;;;;;11.13;100.00;101996.00;5030490;28;20038;-70
2021/04/01 02:20:55;;;;;;;46.53;27.85;;;;;;;11.08;100.00;101993.91;5012861;28;20144;-70
2021/04/01 02:23:35;;;;;;;49.83;26.25;;;;;;;11.08;100.00;101995.78;5030628;28;20043;-69
2021/04/01 02:26:03;;;;;;;42.42;25.92;;;;;;;11.05;100.00;101988.88;5012943;28;20369;-70
2021/04/01 02:28:32;;;;;;;47.00;27.83;;;;;;;11.06;100.00;101995.16;5030576;28;20045;-70
2021/04/01 02:31:00;;;;;;;47.97;26.05;;;;;;;11.07;100.00;101996.84;5030548;28;20460;-70
2021/04/01 02:33:28;;;;;;;46.42;26.48;;;;;;;11.06;100.00;101996.00;5030234;28;20624;-69
2021/04/01 02:35:55;;;;;;;51.95;27.58;;;;;;;11.07;100.00;101992.22;5029253;28;20041;-70
2021/04/01 02:38:21;;;;;;;45.58;27.35;;;;;;;11.08;100.00;101998.53;5029006;28;20068;-72
2021/04/01 02:40:48;;;;;;;50.67;25.70;;;;;;;11.08;100.00;101993.91;5033267;28;20079;-69
2021/04/01 02:43:20;;;;;;;46.30;27.50;;;;;;;11.08;100.00;102004.00;5034114;28;20041;-69
2021/04/01 02:45:46;;;;;;;49.30;27.30;;;;;;;11.06;100.00;101997.91;5034371;28;20048;-69
2021/04/01 02:48:12;;;;;;;49.33;26.83;;;;;;;11.05;100.00;101997.06;5034187;28;20045;-70
2021/04/01 02:50:38;;;;;;;46.05;26.73;;;;;;;11.03;100.00;101993.72;5034205;28;20049;-70
2021/04/01 02:53:04;;;;;;;46.25;26.42;;;;;;;10.99;100.00;101984.28;5033960;28;20052;-71
2021/04/01 02:55:29;;;;;;;50.45;27.70;;;;;;;10.97;100.00;101988.28;5032621;28;20369;-70
2021/04/01 02:57:55;;;;;;;48.10;27.60;;;;;;;10.95;100.00;101991.25;5034066;28;20068;-70
2021/04/01 03:00:28;;;;;;;46.58;26.38;;;;;;;10.93;100.00;101995.22;5034174;28;20072;-70
2021/04/01 03:03:16;;;;;;;46.83;26.58;;;;;;;10.92;100.00;101996.28;5033913;28;20052;-69
2021/04/01 03:05:43;;;;;;;44.75;27.05;;;;;;;10.92;100.00;102004.47;5033939;28;20037;-70
2021/04/01 03:08:10;;;;;;;52.78;27.63;;;;;;;10.90;100.00;101999.22;5033791;28;20033;-70
2021/04/01 03:10:36;;;;;;;51.50;28.50;;;;;;;10.89;100.00;102000.28;5033850;28;20047;-70
2021/04/01 03:13:02;;;;;;;50.92;27.13;;;;;;;10.86;100.00;102000.72;5033671;28;20041;-70
2021/04/01 03:15:27;;;;;;;52.95;27.25;;;;;;;10.84;100.00;101997.38;5033567;28;20096;-69
2021/04/01 03:17:53;;;;;;;49.05;28.15;;;;;;;10.81;100.00;102003.28;5033590;28;20033;-70
2021/04/01 03:20:19;;;;;;;42.80;27.27;;;;;;;10.79;100.00;101992.56;5033608;28;20103;-71
2021/04/01 03:22:45;;;;;;;46.63;27.92;;;;;;;10.78;100.00;101999.09;5033520;28;20075;-70
2021/04/01 03:25:13;;;;;;;44.80;28.02;;;;;;;10.77;100.00;101997.41;5031973;28;20137;-70
2021/04/01 03:27:39;;;;;;;48.63;27.40;;;;;;;10.78;100.00;101998.25;5033851;28;20044;-70
2021/04/01 03:30:11;;;;;;;48.88;27.92;;;;;;;10.78;100.00;101992.78;5033519;28;20042;-70
2021/04/01 03:32:46;;;;;;;57.65;28.33;;;;;;;10.78;100.00;101992.78;5033152;28;20500;-70
2021/04/01 03:35:14;;;;;;;46.25;28.13;;;;;;;10.77;100.00;101989.22;5033380;28;20076;-69
2021/04/01 03:37:40;;;;;;;46.10;27.85;;;;;;;10.77;100.00;101985.63;5033218;28;20121;-70
2021/04/01 03:40:07;;;;;;;49.13;29.02;;;;;;;10.76;100.00;101993.00;5033084;28;20033;-71
2021/04/01 03:42:35;;;;;;;48.25;27.92;;;;;;;10.77;100.00;101999.31;5033245;28;20044;-69
2021/04/01 03:45:02;;;;;;;52.60;29.83;;;;;;;10.77;100.00;101994.66;5033210;28;20068;-71
2021/04/01 03:47:27;;;;;;;52.13;28.75;;;;;;;10.77;100.00;101991.09;5033016;28;20048;-68
2021/04/01 03:49:53;;;;;;;53.90;31.25;;;;;;;10.77;100.00;101991.94;5033107;28;20033;-71
2021/04/01 03:52:19;;;;;;;56.92;30.58;;;;;;;10.76;100.00;102000.31;5030508;28;20103;-69
2021/04/01 03:54:48;;;;;;;52.83;32.53;;;;;;;10.75;100.00;102007.69;5032693;28;20030;-70
2021/04/01 03:57:13;;;;;;;52.25;30.95;;;;;;;10.73;100.00;102000.75;5031526;28;20046;-70
2021/04/01 03:59:54;;;;;;;51.10;30.67;;;;;;;10.72;100.00;102004.56;5033038;28;20511;-70
2021/04/01 04:02:43;;;;;;;57.08;33.42;;;;;;;10.72;100.00;102004.56;5032847;28;20041;-70
2021/04/01 04:05:26;;;;;;;53.75;31.63;;;;;;;10.71;100.00;102008.34;5032708;28;20041;-70
2021/04/01 04:08:15;;;;;;;53.88;32.80;;;;;;;10.72;100.00;102004.56;5032854;28;20507;-69
2021/04/01 04:15:51;;;;;;;52.05;30.85;;;;;;;10.72;100.00;102005.38;5032524;28;20446;-70
2021/04/01 04:18:17;;;;;;;52.97;32.20;;;;;;;10.73;100.00;102012.53;5032606;28;20073;-70
2021/04/01 04:20:43;;;;;;;58.42;30.25;;;;;;;10.74;100.00;102018.84;5032445;28;20041;-70
2021/04/01 04:23:11;;;;;;;55.03;31.77;;;;;;;10.74;100.00;102016.94;5032274;28;20395;-69
2021/04/01 04:25:37;;;;;;;50.47;30.67;;;;;;;10.76;100.00;102016.72;5032423;28;20037;-70
2021/04/01 04:28:15;;;;;;;56.40;32.40;;;;;;;10.78;100.00;102017.38;5032420;28;20045;-69
2021/04/01 04:30:41;;;;;;;51.95;30.58;;;;;;;10.78;100.00;102014.63;5032288;28;20392;-70
2021/04/01 04:33:07;;;;;;;54.88;32.15;;;;;;;10.78;100.00;102009.19;5032254;28;20029;-71
2021/04/01 04:35:33;;;;;;;54.88;30.42;;;;;;;10.78;100.00;102010.00;5032185;28;20040;-69
2021/04/01 04:38:00;;;;;;;52.22;30.60;;;;;;;10.77;100.00;102008.34;5031851;28;20079;-70
2021/04/01 04:40:26;;;;;;;60.22;32.13;;;;;;;10.78;100.00;102014.63;5032213;28;20033;-69
2021/04/01 04:42:52;;;;;;;53.33;31.25;;;;;;;10.77;100.00;102012.97;5032148;28;20029;-70
2021/04/01 04:45:17;;;;;;;51.03;31.60;;;;;;;10.76;100.00;102012.13;5031720;28;20033;-71
2021/04/01 04:47:43;;;;;;;54.15;32.38;;;;;;;10.75;100.00;102015.88;5031974;28;20029;-70
2021/04/01 04:50:09;;;;;;;49.28;29.85;;;;;;;10.76;100.00;102012.13;5031990;28;20384;-69
2021/04/01 04:52:36;;;;;;;56.78;32.47;;;;;;;10.76;100.00;102024.91;5031694;28;20086;-70
2021/04/01 04:55:04;;;;;;;57.80;30.98;;;;;;;10.74;100.00;102024.31;5031623;28;20030;-70
2021/04/01 04:57:39;;;;;;;50.45;30.55;;;;;;;10.72;100.00;102019.06;5031793;28;20033;-70
2021/04/01 05:05:18;;;;;;;53.05;31.67;;;;;;;10.71;100.00;102036.50;5031678;28;20051;-69
2021/04/01 05:07:44;;;;;;;57.17;31.85;;;;;;;10.70;100.00;102040.28;5031535;28;20041;-69
2021/04/01 05:10:10;;;;;;;58.35;33.15;;;;;;;10.70;100.00;102028.53;5031405;28;20033;-71
2021/04/01 05:12:36;;;;;;;52.47;31.83;;;;;;;10.71;100.00;102030.19;5031462;28;20403;-71
2021/04/01 05:15:02;;;;;;;56.67;30.63;;;;;;;10.71;100.00;102024.72;5031252;28;20036;-69
2021/04/01 05:17:27;;;;;;;50.58;30.30;;;;;;;10.71;100.00;102032.94;5031606;28;20045;-69
2021/04/01 05:20:12;;;;;;;53.30;32.97;;;;;;;10.72;100.00;102031.88;5031392;28;20037;-69
2021/04/01 05:22:49;;;;;;;48.58;29.75;;;;;;;10.73;100.00;102028.94;5031315;28;20048;-70
2021/04/01 05:25:14;;;;;;;51.15;31.10;;;;;;;10.73;100.00;102036.28;5031169;28;20538;-70
2021/04/01 05:27:48;;;;;;;59.08;32.03;;;;;;;10.74;100.00;102029.75;5062319;28;20076;-71
2021/04/01 05:30:16;;;;;;;50.58;30.45;;;;;;;10.75;100.00;102025.97;5031258;28;20513;-69
2021/04/01 05:32:43;;;;;;;54.05;31.17;;;;;;;10.75;100.00;102031.44;5031134;28;20033;-69
2021/04/01 05:35:14;;;;;;;53.47;29.88;;;;;;;10.76;100.00;102035.84;5030986;28;20481;-70
2021/04/01 05:37:40;;;;;;;47.60;30.05;;;;;;;10.75;100.00;102036.91;5030912;28;20494;-70
2021/04/01 05:40:08;;;;;;;47.15;30.15;;;;;;;10.73;100.00;102039.84;5031024;28;20476;-70
2021/04/01 05:42:38;;;;;;;64.65;31.35;;;;;;;10.74;100.00;102036.06;5030713;28;20033;-70
2021/04/01 05:47:49;;;;;;;54.92;31.83;;;;;;;10.74;100.00;102048.91;5030851;28;20483;-70
2021/04/01 06:01:48;;;;;;;51.80;31.30;;;;;;;10.71;100.00;102055.63;5030582;28;20049;-69
2021/04/01 06:04:33;;;;;;;50.38;31.48;;;;;;;10.72;100.00;102064.66;5030627;28;20086;-69
2021/04/01 06:07:15;;;;;;;52.15;31.42;;;;;;;10.71;100.00;102073.91;5030579;28;20122;-69
2021/04/01 06:09:48;;;;;;;53.40;32.63;;;;;;;10.69;100.00;102078.75;5030847;28;20048;-69
2021/04/01 06:12:13;;;;;;;60.83;33.22;;;;;;;10.68;100.00;102079.81;5031088;28;20033;-70
2021/04/01 06:14:55;;;;;;;52.13;32.05;;;;;;;10.67;100.00;102078.97;5031393;28;20106;-70
2021/04/01 06:17:24;;;;;;;57.10;30.90;;;;;;;10.67;100.00;102080.88;5034796;28;20131;-69
2021/04/01 06:19:53;;;;;;;45.30;24.48;;;;;;;10.72;100.00;102075.59;5035195;28;20549;-70
2021/04/01 06:22:21;;;;;;;50.20;23.85;;;;;;;10.81;100.00;102074.34;5034715;28;20100;-70
2021/04/01 06:24:49;;;;;;;42.97;22.27;;;;;;;10.96;100.00;102082.28;5034488;28;20045;-69
2021/04/01 06:27:24;;;;;;;39.83;22.45;;;;;;;11.10;100.00;102073.81;5034757;28;20025;-69
2021/04/01 06:30:14;;;;;;;;;;;;;;;11.25;100.00;102081.75;5034906;28;20044;-70
2021/04/01 06:32:47;;;;;;;50.63;25.80;;;;;;;11.42;100.00;102066.53;5034466;28;20007;-71
2021/04/01 06:35:24;;;;;;;43.72;23.30;;;;;;;11.61;100.00;102086.63;5034415;28;20049;-69
2021/04/01 06:40:55;;;;;;;53.90;27.08;;;;;;;11.91;100.00;102080.59;5034099;28;20092;-70
2021/04/01 06:43:33;;;;;;;46.55;26.52;;;;;;;12.02;100.00;102088.97;5034303;28;20033;-69
2021/04/01 06:46:07;;;;;;;44.10;25.27;;;;;;;12.13;100.00;102090.13;5034139;28;20040;-71
2021/04/01 06:51:36;;;;;;;46.10;25.60;;;;;;;12.31;100.00;102081.97;5034009;28;20485;-70
2021/04/01 06:54:12;;;;;;;48.22;27.17;;;;;;;12.40;100.00;102079.81;5034178;28;20041;-71
2021/04/01 06:59:26;;;;;;;40.55;26.42;;;;;;;12.55;100.00;102087.69;5033864;28;20059;-70
2021/04/01 07:02:02;;;;;;;49.70;27.00;;;;;;;12.62;100.00;102094.78;5033999;28;20059;-71
2021/04/01 07:04:35;;;;;;;41.30;24.70;;;;;;;12.70;100.00;102090.94;5033869;28;20431;-69
2021/04/01 07:07:14;;;;;;;45.63;25.48;;;;;;;12.78;100.00;102087.88;5033669;28;20037;-69
2021/04/01 07:09:59;;;;;;;46.30;25.45;;;;;;;12.85;100.00;102087.84;5033793;28;20037;-71
2021/04/01 07:12:28;;;;;;;;;;;;;;;12.93;100.00;102096.59;5034290;28;20415;-70
2021/04/01 07:15:00;;;;;;;43.83;24.20;;;;;;;13.01;100.00;102102.81;5033522;28;19994;-69
2021/04/01 07:17:34;;;;;;;45.38;24.10;;;;;;;13.07;100.00;102101.94;5033767;28;20087;-69
2021/04/01 07:32:03;;;;;;;35.95;19.85;;;;;;;13.57;100.00;102106.22;5033384;28;20036;-69
2021/04/01 07:47:34;;;;;;;32.47;16.88;;;;;;;14.24;100.00;102119.00;5034084;28;20033;-70
2021/04/01 07:50:14;;;;;;;29.83;17.00;;;;;;;14.33;100.00;102118.41;5043124;28;20041;-69
2021/04/01 07:52:41;;;;;;;29.70;16.17;;;;;;;14.43;100.00;102120.59;5032797;28;20034;-71
2021/04/01 07:58:04;;;;;;;27.02;14.30;;;;;;;14.59;100.00;102113.59;5037771;28;20037;-69
2021/04/01 08:06:09;;;;;;;22.55;14.90;;;;;;;14.80;100.00;102103.91;5050638;28;20037;-73
2021/04/01 08:08:38;;;;;;;26.73;16.00;;;;;;;14.87;100.00;102107.34;5052465;28;20044;-71
2021/04/01 08:11:08;;;;;;;27.48;15.82;;;;;;;14.93;100.00;102117.41;5038251;28;20067;-69
2021/04/01 08:13:38;;;;;;;32.22;17.05;;;;;;;15.00;100.00;102113.44;5048778;28;20064;-67
2021/04/01 08:16:10;;;;;;;32.03;17.42;;;;;;;15.08;100.00;102114.97;5047214;28;20025;-68
2021/04/01 08:18:41;;;;;;;28.30;18.23;;;;;;;15.14;100.00;102113.19;5051263;28;20186;-68
2021/04/01 08:21:08;;;;;;;32.00;17.90;;;;;;;15.20;100.00;102107.56;5040726;28;20048;-68
2021/04/01 08:23:44;;;;;;;29.70;17.13;;;;;;;15.28;100.00;102115.47;5047022;28;20070;-67
2021/04/01 08:34:33;;;;;;;33.63;17.23;;;;;;;15.57;100.00;102124.56;5043243;28;20112;-71
2021/04/01 08:37:00;;;;;;;30.20;16.52;;;;;;;15.67;100.00;102124.00;5040251;28;20061;-73
2021/04/01 08:39:26;;;;;;;29.25;16.08;;;;;;;15.73;100.00;102128.50;5039475;28;20049;-66
2021/04/01 08:42:07;;;;;;;27.33;15.05;;;;;;;15.81;100.00;102130.06;5047488;28;20041;-66
2021/04/01 08:45:13;;;;;;;28.23;16.27;;;;;;;15.88;100.00;102122.47;5047216;28;20383;-70
2021/04/01 08:48:24;;;;;;;27.13;15.23;;;;;;;15.98;100.00;102123.50;5039617;28;20040;-67
2021/04/01 08:51:01;;;;;;;23.05;14.57;;;;;;;16.09;100.00;102127.28;5043546;28;20034;-68
2021/04/01 08:53:38;;;;;;;29.15;15.50;;;;;;;16.16;100.00;102121.63;5045138;28;20484;-70
2021/04/01 08:56:23;;;;;;;27.98;15.23;;;;;;;16.23;100.00;102127.81;5043941;28;20044;-69
2021/04/01 08:59:28;;;;;;;25.52;15.00;;;;;;;16.31;100.00;102129.31;5041642;28;20543;-71
2021/04/01 09:01:55;;;;;;;22.75;14.73;;;;;;;16.37;100.00;102129.16;5043618;28;20122;-70
2021/04/01 09:04:26;;;;;;;29.38;16.45;;;;;;;16.45;100.00;102125.97;5031196;28;20120;-70
2021/04/01 09:06:56;;;;;;;26.67;15.65;;;;;;;16.50;100.00;102139.03;5044822;28;20064;-66
2021/04/01 09:09:32;;;;;;;24.70;16.42;;;;;;;16.56;100.00;102138.84;5048275;28;20082;-67
2021/04/01 09:12:14;;;;;;;22.33;15.93;;;;;;;16.63;100.00;102135.09;5031976;28;20071;-66
2021/04/01 09:14:47;;;;;;;23.67;15.88;;;;;;;16.71;100.00;102134.72;5041611;28;20443;-66
2021/04/01 09:17:15;;;;;;;26.17;16.17;;;;;;;16.80;100.00;102138.69;5042084;28;20082;-68
2021/04/01 09:19:43;;;;;;;27.75;15.82;;;;;;;16.87;100.00;102139.38;5044603;28;20040;-68
2021/04/01 09:22:20;;;;;;;30.10;16.15;;;;;;;16.92;100.00;102136.69;5037387;28;20419;-68
2021/04/01 09:24:53;;;;;;;29.20;16.48;;;;;;;16.97;100.00;102144.22;5031978;28;20419;-68
2021/04/01 09:27:19;;;;;;;29.95;16.73;;;;;;;17.01;100.00;102151.75;5038395;28;20045;-69
2021/04/01 09:29:44;;;;;;;30.13;17.08;;;;;;;17.03;100.00;102154.25;5031364;28;20082;-69
2021/04/01 09:32:13;;;;;;;29.90;15.85;;;;;;;17.08;100.00;102146.88;5037864;28;20566;-68
2021/04/01 09:34:40;;;;;;;27.75;16.60;;;;;;;17.15;100.00;102147.50;5037982;28;20083;-67
2021/04/01 09:37:13;;;;;;;34.85;17.52;;;;;;;17.20;100.00;102155.06;5042471;28;20068;-72
2021/04/01 09:39:39;;;;;;;28.23;16.95;;;;;;;17.20;100.00;102156.97;5031309;28;20127;-68
2021/04/01 09:42:11;;;;;;;33.72;18.20;;;;;;;17.27;100.00;102161.22;5033597;28;20438;-69
2021/04/01 09:44:51;;;;;;;36.20;18.60;;;;;;;17.30;100.00;102160.72;5050966;28;20037;-69
2021/04/01 09:47:50;;;;;;;29.65;18.35;;;;;;;17.37;100.00;102166.91;5038521;28;20183;-69
2021/04/01 09:50:17;;;;;;;29.13;17.52;;;;;;;17.43;100.00;102176.06;5030328;28;20565;-68
2021/04/01 09:53:03;;;;;;;28.67;18.65;;;;;;;17.47;100.00;102171.72;5035190;28;20072;-69
2021/04/01 09:55:39;;;;;;;31.65;19.40;;;;;;;17.52;100.00;102185.56;5065551;28;20139;-70
2021/04/01 09:58:26;;;;;;;33.15;20.27;;;;;;;17.53;100.00;102191.94;5030422;28;20037;-68
2021/04/01 10:03:23;;;;;;;33.42;19.90;;;;;;;17.60;100.00;102171.34;5048955;28;20025;-70
2021/04/01 10:05:51;;;;;;;33.83;20.85;;;;;;;17.59;100.00;102180.72;5044722;28;20048;-67
2021/04/01 10:08:24;;;;;;;36.85;21.92;;;;;;;17.54;100.00;102166.84;5034870;28;20128;-69
2021/04/01 10:10:58;;;;;;;41.63;21.88;;;;;;;17.53;100.00;102181.75;5029313;28;20037;-68
2021/04/01 10:13:29;;;;;;;38.53;22.05;;;;;;;17.56;100.00;102181.25;5032017;28;20041;-68
2021/04/01 10:15:57;;;;;;;32.88;22.13;;;;;;;17.54;100.00;102177.06;5033566;28;20500;-69
2021/04/01 10:18:34;;;;;;;36.45;22.67;;;;;;;17.59;100.00;102191.75;5035146;28;20389;-68
2021/04/01 10:21:11;;;;;;;39.30;24.05;;;;;;;17.61;100.00;102199.78;5032999;28;20041;-67
2021/04/01 10:23:47;;;;;;;41.75;24.83;;;;;;;17.67;100.00;102191.31;5031664;28;20103;-70
2021/04/01 10:26:15;;;;;;;39.05;23.52;;;;;;;17.75;100.00;102196.44;5030572;28;20065;-68
2021/04/01 10:29:10;;;;;;;34.47;24.45;;;;;;;17.77;100.00;102194.25;5034530;28;20037;-68
2021/04/01 10:31:43;;;;;;;;;;;;;;;17.89;100.00;102202.41;5032174;28;20025;-70
2021/04/01 10:34:21;;;;;;;40.53;24.83;;;;;;;17.92;100.00;102196.38;5044147;28;19947;-71
2021/04/01 10:36:49;;;;;;;38.50;26.50;;;;;;;17.94;100.00;102196.09;5044087;28;20171;-70
2021/04/01 10:39:17;;;;;;;45.40;26.48;;;;;;;17.98;100.00;102198.09;5042342;28;20049;-68
2021/04/01 10:41:46;;;;;;;44.03;26.02;;;;;;;17.96;100.00;102199.44;5050091;28;20047;-69
2021/04/01 10:44:12;;;;;;;44.20;27.48;;;;;;;17.92;100.00;102190.00;5049855;28;20033;-69
2021/04/01 10:46:42;;;;;;;38.80;26.98;;;;;;;17.96;100.00;102204.97;5047157;28;20033;-70
2021/04/01 10:49:10;;;;;;;44.60;27.20;;;;;;;18.03;100.00;102197.28;5030474;28;20472;-72
2021/04/01 10:51:36;;;;;;;39.33;26.73;;;;;;;18.10;100.00;102197.94;5038120;28;20045;-69
2021/04/01 10:54:09;;;;;;;41.75;27.13;;;;;;;18.20;100.00;102198.03;5031330;28;20038;-68
2021/04/01 10:56:55;;;;;;;42.63;26.13;;;;;;;18.30;100.00;102200.94;5047059;28;20483;-69
2021/04/01 10:59:40;;;;;;;46.33;26.30;;;;;;;18.28;100.00;102194.00;5033512;28;20655;-68
2021/04/01 11:02:20;;;;;;;44.10;27.05;;;;;;;18.28;100.00;102202.28;5034947;28;20041;-69
2021/04/01 11:04:54;;;;;;;39.78;26.02;;;;;;;18.29;100.00;102218.63;5038816;28;20025;-69
2021/04/01 11:07:21;;;;;;;50.67;25.90;;;;;;;18.32;100.00;102193.19;5046627;28;20032;-71
2021/04/01 11:09:51;;;;;;;49.05;26.75;;;;;;;18.29;100.00;102202.03;5038367;28;20044;-69
2021/04/01 11:12:19;;;;;;;41.30;27.17;;;;;;;18.34;100.00;102199.31;5033730;28;20103;-71
2021/04/01 11:14:46;;;;;;;48.28;26.75;;;;;;;18.44;100.00;102217.13;5034653;28;20108;-69
2021/04/01 11:17:18;;;;;;;38.88;25.17;;;;;;;18.44;100.00;102211.59;5038804;28;20056;-66
2021/04/01 11:19:45;;;;;;;40.25;25.77;;;;;;;18.49;100.00;102217.16;5036449;28;20390;-66
2021/04/01 11:22:11;;;;;;;45.15;26.52;;;;;;;18.46;100.00;102204.69;5032035;28;20033;-67
2021/04/01 11:24:39;;;;;;;42.33;25.92;;;;;;;18.50;100.00;102218.81;5035820;28;20375;-68
2021/04/01 11:27:09;;;;;;;44.13;26.95;;;;;;;18.56;100.00;102206.69;5051371;28;20041;-67
2021/04/01 11:29:36;;;;;;;36.28;25.10;;;;;;;18.57;100.00;102217.53;5053369;28;20025;-66
2021/04/01 11:32:15;;;;;;;42.33;26.50;;;;;;;18.62;100.00;102205.66;5050047;28;20037;-67
2021/04/01 11:34:43;;;;;;;41.85;27.55;;;;;;;18.56;100.00;102195.63;5036941;28;20430;-67
2021/04/01 11:37:10;;;;;;;43.35;26.85;;;;;;;18.66;100.00;102204.91;5046046;28;20478;-68
2021/04/01 11:39:39;;;;;;;40.55;26.88;;;;;;;18.70;100.00;102213.50;5052992;28;20048;-68
2021/04/01 11:42:09;;;;;;;38.47;26.38;;;;;;;18.77;100.00;102211.38;5051715;28;20083;-65
2021/04/01 11:44:36;;;;;;;45.75;26.90;;;;;;;18.73;100.00;102221.28;5035421;28;20064;-68
2021/04/01 11:47:16;;;;;;;42.70;26.05;;;;;;;18.66;100.00;102215.13;5051380;28;20041;-67
2021/04/01 11:49:43;;;;;;;46.13;26.08;;;;;;;18.62;100.00;102222.28;5036204;28;20041;-67
2021/04/01 11:52:13;;;;;;;40.58;26.90;;;;;;;18.50;100.00;102210.53;5034277;28;20111;-66
2021/04/01 11:54:39;;;;;;;49.63;26.40;;;;;;;18.37;100.00;102209.84;5033916;28;20912;-68
2021/04/01 11:57:32;;;;;;;45.13;25.77;;;;;;;18.24;100.00;102220.50;5035263;28;20124;-68
2021/04/01 12:00:16;;;;;;;43.13;28.08;;;;;;;18.07;100.00;102232.50;5052907;28;20399;-67
2021/04/01 12:03:02;;;;;;;36.70;26.17;;;;;;;17.96;100.00;102229.84;5037583;28;20033;-67
2021/04/01 12:05:30;;;;;;;44.67;27.75;;;;;;;17.84;100.00;102215.31;5035561;28;20529;-68
2021/04/01 12:07:56;;;;;;;44.42;27.08;;;;;;;17.77;100.00;102210.81;5050113;28;20452;-70
2021/04/01 12:10:22;;;;;;;44.55;27.02;;;;;;;17.70;100.00;102218.50;5052321;28;20040;-69
2021/04/01 12:12:53;;;;;;;46.13;26.90;;;;;;;17.71;100.00;102233.97;5051783;28;20025;-68
2021/04/01 12:15:48;;;;;;;42.80;27.58;;;;;;;17.89;100.00;102221.75;5050991;28;20491;-70
2021/04/01 12:18:13;;;;;;;44.88;27.25;;;;;;;17.97;100.00;102217.69;5069050;28;20089;-72
2021/04/01 12:20:39;;;;;;;44.47;27.65;;;;;;;17.94;100.00;102220.97;5069606;28;20052;-70
2021/04/01 12:23:09;;;;;;;48.50;27.63;;;;;;;18.30;100.00;102231.34;5055351;28;20051;-72
2021/04/01 12:25:35;;;;;;;42.67;26.48;;;;;;;18.43;100.00;102218.22;5044727;28;20037;-69
2021/04/01 12:28:01;;;;;;;40.58;27.08;;;;;;;18.60;100.00;102230.00;5050927;28;20033;-70
2021/04/01 12:30:36;;;;;;;43.25;27.95;;;;;;;18.80;100.00;102219.16;5052014;28;20036;-69
2021/04/01 12:33:20;;;;;;;45.08;27.55;;;;;;;18.90;100.00;102227.50;5037209;28;20528;-71
2021/04/01 12:36:04;;;;;;;42.70;26.63;;;;;;;19.04;100.00;102229.84;5032254;28;20048;-68